Time;durP1;ratioP1;P1;durP2;ratioP2;P2;SDS_P1;SDS_P2;PMS_P1;PMS_P2;Temp;Humidity;BMP_temperature;BMP_pressure;BME280_temperature;BME280_humidity;BME280_pressure;Samples;Min_cycle;Max_cycle;Signal;HPM_P1;HPM_P2
2022/05/21 00:01:30;;;;;;;5.30;2.60;;;;;;;14.34;54.09;95343.03;5118948;28;20275;-69
2022/05/21 00:03:57;;;;;;;3.70;2.53;;;;;;;14.32;53.84;95346.19;5118096;28;20298;-69
2022/05/21 00:06:24;;;;;;;5.25;2.83;;;;;;;14.32;54.08;95339.84;5118869;28;20198;-68
2022/05/21 00:08:52;;;;;;;3.38;2.60;;;;;;;14.31;53.51;95341.81;5118744;28;20184;-68
2022/05/21 00:11:19;;;;;;;3.55;2.70;;;;;;;14.30;53.79;95344.94;5119202;28;20211;-68
2022/05/21 00:13:48;;;;;;;4.28;2.85;;;;;;;14.21;54.15;95343.22;5101198;28;20494;-69
2022/05/21 00:16:15;;;;;;;2.83;2.55;;;;;;;14.12;54.43;95342.66;5118893;28;20209;-69
2022/05/21 00:18:42;;;;;;;3.03;2.40;;;;;;;14.09;54.07;95342.59;5117913;28;20207;-69
2022/05/21 00:21:09;;;;;;;2.70;2.50;;;;;;;14.02;54.61;95342.50;5117682;28;20207;-69
2022/05/21 00:23:36;;;;;;;8.57;2.60;;;;;;;13.93;54.29;95346.28;5118561;28;20188;-69
2022/05/21 00:26:06;;;;;;;3.42;2.50;;;;;;;13.84;54.38;95339.38;5119062;28;20600;-69
2022/05/21 00:28:33;;;;;;;4.35;3.05;;;;;;;13.71;54.70;95328.44;5117970;28;20204;-69
2022/05/21 00:31:01;;;;;;;3.47;3.17;;;;;;;13.67;54.59;95333.13;5117661;28;20235;-68
2022/05/21 00:33:29;;;;;;;3.92;2.88;;;;;;;13.66;54.88;95328.75;5118612;28;20196;-68
2022/05/21 00:35:56;;;;;;;3.53;3.22;;;;;;;13.67;54.93;95310.16;5118244;28;20637;-68
2022/05/21 00:38:23;;;;;;;4.25;3.90;;;;;;;13.66;54.97;95316.88;5117800;28;20626;-68
2022/05/21 00:40:50;;;;;;;4.57;3.40;;;;;;;13.64;55.14;95310.88;5117816;28;20215;-68
2022/05/21 00:43:41;;;;;;;6.47;3.42;;;;;;;13.61;55.15;95308.84;5118467;28;20191;-68
2022/05/21 00:46:10;;;;;;;3.97;3.47;;;;;;;13.58;55.22;95304.84;5118011;28;20519;-68
2022/05/21 00:48:38;;;;;;;3.88;3.30;;;;;;;13.52;55.49;95308.28;5118021;28;20195;-68
2022/05/21 00:51:08;;;;;;;5.85;3.63;;;;;;;13.45;55.17;95300.63;5117288;28;20226;-68
2022/05/21 00:53:35;;;;;;;4.63;3.13;;;;;;;13.35;55.21;95298.44;5117833;28;20238;-68
2022/05/21 00:56:02;;;;;;;3.58;3.20;;;;;;;13.28;55.17;95304.63;5117631;28;20204;-68
2022/05/21 01:01:17;;;;;;;2.90;2.70;;;;;;;13.20;55.57;95298.09;5117553;28;20191;-68
2022/05/21 01:03:44;;;;;;;4.40;3.20;;;;;;;13.14;55.91;95294.00;5118130;28;20187;-68
2022/05/21 01:06:11;;;;;;;3.30;3.00;;;;;;;13.16;56.33;95300.00;5118110;28;20209;-68
2022/05/21 01:08:39;;;;;;;3.25;2.95;;;;;;;13.21;56.67;95296.13;5117957;28;20195;-68
2022/05/21 01:11:11;;;;;;;3.28;2.97;;;;;;;13.25;56.55;95294.28;5117722;28;20215;-68
2022/05/21 01:13:39;;;;;;;3.42;2.70;;;;;;;13.21;56.10;95290.59;5117180;28;20200;-68
2022/05/21 01:16:07;;;;;;;4.15;2.70;;;;;;;13.17;56.17;95287.75;5117457;28;20176;-68
2022/05/21 01:18:35;;;;;;;4.35;2.75;;;;;;;13.12;56.15;95293.59;5117756;28;20188;-69
2022/05/21 01:21:03;;;;;;;3.63;2.70;;;;;;;13.09;56.23;95294.31;5116822;28;20199;-69
2022/05/21 01:23:32;;;;;;;3.55;2.80;;;;;;;13.00;56.63;95293.75;5117701;28;20180;-69
2022/05/21 01:26:00;;;;;;;3.08;2.78;;;;;;;12.99;56.76;95303.19;5117611;28;20525;-69
2022/05/21 01:28:31;;;;;;;4.18;3.20;;;;;;;12.98;56.58;95296.84;5117710;28;20188;-69
2022/05/21 01:31:00;;;;;;;3.15;2.85;;;;;;;12.93;56.41;95291.63;5117766;28;20195;-69
2022/05/21 01:33:29;;;;;;;4.10;2.75;;;;;;;12.81;56.78;95291.72;5117212;28;20200;-68
2022/05/21 01:35:57;;;;;;;3.60;2.63;;;;;;;12.81;56.83;95291.72;5117247;28;20260;-68
2022/05/21 01:38:25;;;;;;;3.28;2.60;;;;;;;12.80;57.13;95290.13;5116504;28;20196;-69
2022/05/21 01:40:53;;;;;;;4.90;2.97;;;;;;;12.82;56.88;95298.88;5117113;28;20180;-68
2022/05/21 01:46:05;;;;;;;4.60;2.50;;;;;;;12.78;57.38;95300.75;5117078;28;20183;-68
2022/05/21 01:48:33;;;;;;;4.15;2.92;;;;;;;12.80;57.43;95297.63;5117161;28;20184;-68
2022/05/21 01:51:00;;;;;;;5.20;2.58;;;;;;;12.76;57.66;95292.81;5117022;28;20184;-67
2022/05/21 01:53:28;;;;;;;3.80;2.80;;;;;;;12.76;57.34;95280.94;5117112;28;20196;-67
2022/05/21 01:55:59;;;;;;;5.15;2.90;;;;;;;12.79;57.62;95282.22;5116381;28;20215;-67
2022/05/21 01:58:26;;;;;;;3.53;2.55;;;;;;;12.79;57.42;95282.22;5116931;28;20195;-68
2022/05/21 02:00:54;;;;;;;5.63;2.70;;;;;;;12.73;57.88;95282.47;5115757;28;20265;-68
2022/05/21 02:03:21;;;;;;;3.83;2.67;;;;;;;12.70;57.96;95279.63;5116603;28;20548;-68
2022/05/21 02:05:47;;;;;;;3.78;2.60;;;;;;;12.61;57.80;95290.09;5116863;28;20188;-68
2022/05/21 02:08:15;;;;;;;6.45;3.33;;;;;;;12.55;58.29;95280.47;5116369;28;20200;-68
2022/05/21 02:10:43;;;;;;;7.35;4.18;;;;;;;12.44;58.00;95266.38;5116714;28;20626;-68
2022/05/21 02:13:15;;;;;;;6.03;4.13;;;;;;;12.38;58.53;95270.59;5116815;28;20203;-68
2022/05/21 02:15:42;;;;;;;4.63;3.80;;;;;;;12.40;58.61;95260.78;5115429;28;20206;-68
2022/05/21 02:18:08;;;;;;;7.25;5.63;;;;;;;12.39;58.38;95255.63;5115976;28;20202;-68
2022/05/21 02:20:35;;;;;;;7.22;5.68;;;;;;;12.34;58.55;95255.88;5115390;28;20207;-68
2022/05/21 02:23:02;;;;;;;10.57;5.78;;;;;;;12.33;58.38;95251.50;5115262;28;20616;-68
2022/05/21 02:25:29;;;;;;;6.70;5.25;;;;;;;12.29;58.54;95254.19;5115397;28;20210;-68
2022/05/21 02:27:56;;;;;;;6.05;5.50;;;;;;;12.22;58.56;95254.81;5115856;28;20200;-68
2022/05/21 02:30:24;;;;;;;7.60;5.70;;;;;;;12.17;59.00;95259.84;5115681;28;20211;-67
2022/05/21 02:32:51;;;;;;;7.18;5.90;;;;;;;12.15;58.77;95259.38;5115010;28;20216;-67
2022/05/21 02:35:18;;;;;;;6.10;5.50;;;;;;;12.14;59.00;95260.56;5115529;28;20202;-67
2022/05/21 02:40:30;;;;;;;6.30;5.50;;;;;;;12.17;59.27;95255.09;5115922;28;20176;-67
2022/05/21 02:42:56;;;;;;;7.55;6.10;;;;;;;12.21;59.01;95242.16;5114713;28;20227;-68
2022/05/21 02:45:28;;;;;;;8.23;6.55;;;;;;;12.28;59.35;95252.59;5116131;28;20188;-68
2022/05/21 02:47:55;;;;;;;8.43;5.43;;;;;;;12.23;59.69;95253.66;5115573;28;20224;-67
2022/05/21 02:50:25;;;;;;;7.93;5.85;;;;;;;12.23;59.13;95248.13;5116014;28;20188;-67
2022/05/21 02:52:52;;;;;;;6.70;5.82;;;;;;;12.16;59.34;95253.47;5114954;28;20245;-67
2022/05/21 02:55:19;;;;;;;7.32;6.40;;;;;;;12.16;59.62;95258.22;5115169;28;20258;-67
2022/05/21 02:57:46;;;;;;;9.88;6.80;;;;;;;12.13;59.86;95258.94;5116090;28;20190;-67
2022/05/21 03:00:15;;;;;;;10.95;8.77;;;;;;;12.08;59.56;95268.31;5115146;28;20204;-67
2022/05/21 03:02:43;;;;;;;11.43;8.93;;;;;;;12.01;59.81;95277.22;5115812;28;20180;-67
2022/05/21 03:05:11;;;;;;;11.10;8.88;;;;;;;12.02;60.16;95281.63;5115530;28;20176;-68
2022/05/21 03:07:38;;;;;;;17.83;12.18;;;;;;;12.07;60.16;95282.50;5115719;28;20653;-68
2022/05/21 03:10:23;;;;;;;14.13;12.65;;;;;;;12.14;60.01;95285.44;5115697;28;20188;-68
2022/05/21 03:12:52;;;;;;;13.82;11.88;;;;;;;12.20;59.51;95287.59;5115668;28;20208;-68
2022/05/21 03:15:20;;;;;;;16.90;15.05;;;;;;;12.19;59.48;95283.19;5114756;28;20187;-68
2022/05/21 03:17:48;;;;;;;17.77;14.57;;;;;;;12.13;59.67;95281.88;5115172;28;20256;-68
2022/05/21 03:20:16;;;;;;;16.13;14.38;;;;;;;12.09;59.73;95281.00;5114849;28;20184;-66
2022/05/21 03:22:43;;;;;;;16.73;13.25;;;;;;;12.09;60.19;95274.63;5114639;28;20204;-66
2022/05/21 03:25:11;;;;;;;15.27;13.00;;;;;;;12.00;60.07;95278.38;5115691;28;20186;-66
2022/05/21 03:27:38;;;;;;;13.70;12.10;;;;;;;11.96;60.29;95269.22;5115367;28;20186;-66
2022/05/21 03:30:07;;;;;;;14.68;12.68;;;;;;;11.94;60.52;95265.19;5114666;28;20204;-66
2022/05/21 03:32:34;;;;;;;15.65;12.30;;;;;;;11.89;60.42;95266.25;5115433;28;20211;-66
2022/05/21 03:35:03;;;;;;;13.38;11.82;;;;;;;11.84;60.71;95263.78;5115546;28;20180;-66
2022/05/21 03:37:30;;;;;;;15.32;11.52;;;;;;;11.81;60.35;95265.25;5114361;28;20234;-66
2022/05/21 03:39:57;;;;;;;13.40;11.43;;;;;;;11.79;59.96;95261.22;5114647;28;20196;-66
2022/05/21 03:42:24;;;;;;;14.70;11.57;;;;;;;11.74;60.36;95256.78;5115498;28;20227;-66
2022/05/21 03:44:51;;;;;;;13.38;11.98;;;;;;;11.74;60.48;95261.50;5115045;28;20650;-66
2022/05/21 03:47:18;;;;;;;13.38;11.18;;;;;;;11.75;61.04;95272.19;5115114;28;20219;-70
2022/05/21 03:49:45;;;;;;;17.27;11.82;;;;;;;11.75;61.00;95271.41;5114622;28;20204;-67
2022/05/21 03:52:13;;;;;;;14.93;13.20;;;;;;;11.78;60.63;95277.00;5114644;28;20211;-67
2022/05/21 03:54:40;;;;;;;16.08;12.95;;;;;;;11.79;60.67;95283.34;5114945;28;20550;-67
2022/05/21 03:57:07;;;;;;;15.93;13.45;;;;;;;11.80;61.30;95277.47;5115427;28;20210;-68
2022/05/21 03:59:34;;;;;;;18.48;12.88;;;;;;;11.85;61.54;95284.72;5114115;28;20211;-66
2022/05/21 04:02:02;;;;;;;17.02;15.27;;;;;;;11.90;61.29;95287.22;5114319;28;20255;-66
2022/05/21 04:04:29;;;;;;;17.27;14.80;;;;;;;11.95;61.48;95291.69;5115450;28;20179;-66
2022/05/21 04:06:56;;;;;;;18.58;16.67;;;;;;;12.00;60.75;95297.75;5114828;28;20490;-66
2022/05/21 04:09:27;;;;;;;26.10;19.10;;;;;;;12.05;61.06;95296.66;5115311;28;20180;-68
2022/05/21 04:11:55;;;;;;;19.33;16.42;;;;;;;12.20;60.62;95295.06;5114208;28;20310;-69
2022/05/21 04:14:27;;;;;;;16.50;12.60;;;;;;;12.34;60.28;95292.63;5114834;28;20566;-67
2022/05/21 04:16:53;;;;;;;12.82;10.98;;;;;;;12.45;59.72;95301.19;5113883;28;20188;-67
2022/05/21 04:19:20;;;;;;;15.60;13.60;;;;;;;12.48;59.54;95294.94;5114348;28;20192;-68
2022/05/21 04:21:47;;;;;;;14.60;12.85;;;;;;;12.53;60.05;95308.50;5114772;28;20604;-67
2022/05/21 04:24:14;;;;;;;19.13;13.75;;;;;;;12.54;59.75;95301.81;5114463;28;20215;-67
2022/05/21 04:26:43;;;;;;;18.50;14.35;;;;;;;12.56;59.46;95305.00;5114115;28;20533;-68
2022/05/21 04:29:10;;;;;;;13.65;12.13;;;;;;;12.57;59.69;95306.63;5114306;28;20196;-70
2022/05/21 04:31:37;;;;;;;13.60;11.77;;;;;;;12.61;59.90;95304.75;5115630;28;20188;-67
2022/05/21 04:34:04;;;;;;;16.75;11.13;;;;;;;12.67;59.99;95308.84;5117321;28;20203;-66
2022/05/21 04:36:31;;;;;;;15.10;10.77;;;;;;;12.71;59.74;95301.41;5118662;28;20184;-68
2022/05/21 04:38:57;;;;;;;14.48;10.93;;;;;;;12.74;59.58;95299.88;5118190;28;20611;-68
2022/05/21 04:41:25;;;;;;;14.02;11.20;;;;;;;12.80;59.54;95292.09;5118636;28;20251;-68
2022/05/21 04:43:54;;;;;;;14.82;11.20;;;;;;;12.79;58.84;95291.31;5117954;28;20204;-70
2022/05/21 04:46:23;;;;;;;12.30;9.68;;;;;;;12.83;58.93;95285.84;5118436;28;20225;-67
2022/05/21 04:48:49;;;;;;;13.75;9.00;;;;;;;12.86;57.94;95285.13;5118396;28;20591;-67
2022/05/21 04:51:17;;;;;;;11.40;8.57;;;;;;;12.92;58.24;95292.75;5117555;28;20191;-67
2022/05/21 04:53:44;;;;;;;8.20;7.38;;;;;;;12.97;57.78;95305.53;5118254;28;20228;-67
2022/05/21 04:56:11;;;;;;;8.80;6.78;;;;;;;13.04;57.35;95304.91;5117236;28;20200;-67
2022/05/21 04:58:37;;;;;;;7.90;6.75;;;;;;;13.07;56.87;95299.44;5118171;28;20175;-67
2022/05/21 05:01:06;;;;;;;7.15;5.93;;;;;;;13.13;56.81;95300.72;5117286;28;20191;-67
2022/05/21 05:03:33;;;;;;;8.60;5.95;;;;;;;13.17;56.33;95300.81;5116919;28;20192;-67
2022/05/21 05:06:00;;;;;;;8.10;5.70;;;;;;;13.20;56.74;95309.19;5117164;28;20195;-67
2022/05/21 05:08:27;;;;;;;9.45;5.43;;;;;;;13.26;57.31;95311.72;5117753;28;20540;-67
2022/05/21 05:10:55;;;;;;;8.23;5.10;;;;;;;13.27;57.19;95307.78;5117983;28;20191;-67
2022/05/21 05:13:21;;;;;;;7.78;5.45;;;;;;;13.27;56.42;95310.53;5117065;28;20211;-67
2022/05/21 05:15:48;;;;;;;7.32;6.63;;;;;;;13.26;58.10;95312.50;5117544;28;20188;-67
2022/05/21 05:18:19;;;;;;;8.05;6.15;;;;;;;13.24;58.35;95312.84;5117842;28;20195;-67
2022/05/21 05:20:46;;;;;;;7.30;5.70;;;;;;;13.28;57.06;95309.38;5116864;28;20203;-67
2022/05/21 05:23:13;;;;;;;7.97;5.35;;;;;;;13.29;57.84;95310.97;5116848;28;20184;-67
2022/05/21 05:25:40;;;;;;;6.97;5.32;;;;;;;13.30;57.82;95307.84;5117875;28;20176;-68
2022/05/21 05:28:14;;;;;;;7.10;5.00;;;;;;;13.36;56.82;95300.84;5117625;28;20192;-67
2022/05/21 05:30:41;;;;;;;5.78;4.90;;;;;;;13.41;56.86;95300.56;5116515;28;20196;-67
2022/05/21 05:33:08;;;;;;;9.73;6.55;;;;;;;13.46;56.80;95303.00;5117286;28;20227;-69
2022/05/21 05:35:36;;;;;;;11.38;6.53;;;;;;;13.48;57.24;95299.91;5116923;28;20203;-67
2022/05/21 05:38:06;;;;;;;6.65;5.75;;;;;;;13.47;57.00;95299.09;5116237;28;20200;-68
2022/05/21 05:40:33;;;;;;;8.90;5.97;;;;;;;13.49;57.52;95291.19;5117366;28;20227;-67
2022/05/21 05:43:01;;;;;;;6.32;5.72;;;;;;;13.59;57.49;95294.56;5115416;28;20231;-67
2022/05/21 05:45:28;;;;;;;6.68;4.57;;;;;;;13.69;56.29;95283.69;5115780;28;20219;-67
2022/05/21 05:47:55;;;;;;;8.15;4.93;;;;;;;13.83;55.49;95287.84;5116605;28;20188;-70
2022/05/21 05:50:21;;;;;;;6.35;4.93;;;;;;;13.86;55.78;95285.16;5115984;28;20203;-67
2022/05/21 05:52:50;;;;;;;5.80;5.20;;;;;;;13.89;55.78;95278.88;5115797;28;20295;-67
2022/05/21 05:55:18;;;;;;;7.18;5.03;;;;;;;13.90;55.42;95276.91;5116227;28;20192;-67
2022/05/21 05:57:50;;;;;;;7.38;5.63;;;;;;;13.91;55.43;95268.22;5115761;28;20200;-67
2022/05/21 06:00:17;;;;;;;7.93;5.63;;;;;;;13.94;55.18;95266.66;5115707;28;20195;-67
2022/05/21 06:03:02;;;;;;;8.05;6.35;;;;;;;14.00;54.73;95273.53;5115784;28;20223;-66
2022/05/21 06:05:31;;;;;;;6.05;5.38;;;;;;;14.10;54.52;95269.34;5115885;28;20244;-67
2022/05/21 06:08:01;;;;;;;7.35;6.00;;;;;;;14.21;54.60;95257.22;5115862;28;20204;-67
2022/05/21 06:10:30;;;;;;;7.45;5.68;;;;;;;14.32;54.58;95260.19;5116008;28;20208;-67
2022/05/21 06:12:57;;;;;;;7.30;5.95;;;;;;;14.40;54.38;95250.78;5115738;28;20215;-67
2022/05/21 06:15:24;;;;;;;7.57;6.47;;;;;;;14.43;53.63;95244.50;5116694;28;20195;-67
2022/05/21 06:17:52;;;;;;;8.13;6.10;;;;;;;14.48;54.14;95242.56;5116655;28;20183;-67
2022/05/21 06:20:21;;;;;;;7.75;5.93;;;;;;;14.48;54.83;95246.16;5116338;28;20187;-67
2022/05/21 06:22:48;;;;;;;8.65;6.55;;;;;;;14.51;54.68;95242.66;5116455;28;20191;-67
2022/05/21 06:25:18;;;;;;;10.00;7.20;;;;;;;14.53;55.15;95239.53;5116539;28;20191;-67
2022/05/21 06:27:45;;;;;;;8.45;7.28;;;;;;;14.56;54.63;95239.56;5115772;28;20192;-67
2022/05/21 06:30:13;;;;;;;6.32;5.43;;;;;;;14.66;54.07;95229.78;5115673;28;20195;-67
2022/05/21 06:32:40;;;;;;;8.05;5.88;;;;;;;14.75;53.66;95232.31;5115937;28;20199;-67
2022/05/21 06:35:08;;;;;;;8.02;5.80;;;;;;;14.83;53.34;95229.22;5116317;28;20183;-67
2022/05/21 06:37:35;;;;;;;7.30;5.50;;;;;;;14.89;53.55;95224.97;5116523;28;20183;-67
2022/05/21 06:40:02;;;;;;;6.93;5.80;;;;;;;14.93;53.61;95225.00;5116047;28;20184;-67
2022/05/21 06:42:30;;;;;;;6.10;5.38;;;;;;;15.00;52.82;95218.75;5114999;28;20633;-67
2022/05/21 06:44:57;;;;;;;5.80;4.30;;;;;;;15.07;51.63;95211.28;5115107;28;20199;-67
2022/05/21 06:47:24;;;;;;;7.60;4.25;;;;;;;15.11;51.76;95212.13;5115440;28;20191;-67
2022/05/21 06:49:53;;;;;;;6.00;4.13;;;;;;;15.16;52.20;95209.00;5115789;28;20550;-67
2022/05/21 06:52:20;;;;;;;5.63;3.78;;;;;;;15.24;51.57;95207.09;5115234;28;20224;-68
2022/05/21 06:54:46;;;;;;;7.90;3.95;;;;;;;15.31;51.12;95211.97;5115850;28;20277;-67
2022/05/21 06:57:14;;;;;;;6.30;4.30;;;;;;;15.36;51.14;95203.28;5116096;28;20200;-67
2022/05/21 06:59:42;;;;;;;6.47;3.92;;;;;;;15.44;50.28;95201.38;5116118;28;20267;-67
2022/05/21 07:02:09;;;;;;;4.97;4.05;;;;;;;15.47;50.01;95192.25;5114852;28;20266;-67
2022/05/21 07:07:35;;;;;;;7.28;4.10;;;;;;;15.52;49.96;95181.63;5115770;28;20180;-67
2022/05/21 07:10:05;;;;;;;4.88;3.70;;;;;;;15.58;50.60;95179.28;5115796;28;20253;-66
2022/05/21 07:12:33;;;;;;;7.15;4.05;;;;;;;15.66;50.64;95181.00;5115650;28;20195;-67
2022/05/21 07:15:03;;;;;;;7.10;4.45;;;;;;;15.72;50.85;95176.66;5114826;28;20184;-67
2022/05/21 07:17:30;;;;;;;6.95;4.38;;;;;;;15.80;50.84;95167.22;5115101;28;20195;-67
2022/05/21 07:19:57;;;;;;;8.82;4.35;;;;;;;15.87;50.47;95164.50;5114763;28;20535;-67
2022/05/21 07:22:24;;;;;;;5.22;4.20;;;;;;;15.92;49.93;95162.53;5114800;28;20256;-67
2022/05/21 07:24:51;;;;;;;7.93;4.72;;;;;;;15.99;50.66;95166.16;5114312;28;20608;-67
2022/05/21 07:27:17;;;;;;;4.82;4.25;;;;;;;16.07;50.33;95155.91;5114861;28;20202;-67
2022/05/21 07:29:45;;;;;;;7.07;5.65;;;;;;;16.11;50.32;95157.50;5114498;28;20200;-67
2022/05/21 07:32:21;;;;;;;4.93;3.80;;;;;;;16.23;50.06;95153.63;5115697;28;20184;-67
2022/05/21 07:34:48;;;;;;;9.00;7.70;;;;;;;16.31;50.34;95154.47;5115371;28;20210;-67
2022/05/21 07:37:14;;;;;;;7.35;6.60;;;;;;;16.52;49.71;95162.13;5114592;28;20210;-66
2022/05/21 07:39:41;;;;;;;9.70;6.70;;;;;;;16.60;48.87;95149.88;5115504;28;20218;-66
2022/05/21 07:42:08;;;;;;;9.73;5.32;;;;;;;16.68;50.10;95156.28;5114261;28;20227;-67
2022/05/21 07:44:35;;;;;;;8.07;4.97;;;;;;;16.80;49.27;95144.81;5115406;28;20184;-67
2022/05/21 07:47:02;;;;;;;7.47;5.20;;;;;;;16.87;49.34;95147.63;5114203;28;20207;-67
2022/05/21 07:49:31;;;;;;;9.98;6.35;;;;;;;16.92;49.50;95152.03;5115115;28;20615;-67
2022/05/21 07:51:58;;;;;;;9.98;6.68;;;;;;;17.06;49.03;95147.31;5114476;28;20208;-67
2022/05/21 07:54:25;;;;;;;7.50;5.95;;;;;;;17.26;49.06;95142.19;5114384;28;20239;-67
2022/05/21 07:56:52;;;;;;;13.43;5.80;;;;;;;17.40;48.23;95143.44;5115604;28;20215;-67
2022/05/21 07:59:19;;;;;;;8.32;5.28;;;;;;;17.50;48.33;95135.09;5114669;28;20192;-66
2022/05/21 08:01:46;;;;;;;8.18;6.18;;;;;;;17.49;47.55;95135.47;5115082;28;20177;-67
2022/05/21 08:04:12;;;;;;;9.50;5.47;;;;;;;17.52;47.68;95135.47;5114966;28;20598;-67
2022/05/21 08:06:41;;;;;;;7.57;4.50;;;;;;;17.63;48.86;95131.91;5115556;28;20187;-68
2022/05/21 08:09:07;;;;;;;8.57;4.55;;;;;;;17.72;49.07;95121.97;5118433;28;20258;-68
2022/05/21 08:11:34;;;;;;;7.63;4.75;;;;;;;17.92;48.44;95116.81;5119208;28;20183;-67
2022/05/21 08:14:01;;;;;;;5.68;4.28;;;;;;;18.02;48.77;95115.22;5117885;28;20219;-67
2022/05/21 08:16:29;;;;;;;7.28;4.20;;;;;;;18.11;48.66;95114.78;5118608;28;20195;-68
2022/05/21 08:18:56;;;;;;;5.97;4.50;;;;;;;18.28;48.23;95103.59;5118006;28;20195;-68
2022/05/21 08:21:23;;;;;;;7.07;4.50;;;;;;;18.46;47.45;95095.19;5118402;28;20199;-68
2022/05/21 08:29:36;;;;;;;7.07;4.72;;;;;;;18.89;47.06;95102.66;5059787;28;20201;-67
2022/05/21 08:32:05;;;;;;;7.07;5.97;;;;;;;19.12;47.00;95097.34;5059631;28;20205;-71
2022/05/21 08:34:32;;;;;;;8.15;5.10;;;;;;;19.29;46.36;95094.88;5084686;28;20238;-67
2022/05/21 08:36:59;;;;;;;5.00;4.60;;;;;;;19.49;45.30;95090.31;5118292;28;20195;-67
2022/05/21 08:39:27;;;;;;;5.57;4.43;;;;;;;19.45;44.75;95095.16;5118607;28;20184;-67
2022/05/21 08:41:56;;;;;;;5.80;3.67;;;;;;;19.70;43.97;95089.41;5117263;28;20239;-67
2022/05/21 08:44:34;;;;;;;6.95;4.15;;;;;;;19.87;46.38;95087.69;5118586;28;20179;-67
2022/05/21 08:47:05;;;;;;;5.43;4.07;;;;;;;20.09;46.30;95075.09;5118452;28;20237;-67
2022/05/21 08:49:36;;;;;;;5.22;4.10;;;;;;;20.18;46.07;95088.59;5117612;28;20191;-67
2022/05/21 08:52:14;;;;;;;6.65;4.10;;;;;;;20.40;45.48;95084.34;5118274;28;20195;-67
2022/05/21 08:54:44;;;;;;;7.10;4.05;;;;;;;20.58;45.80;95084.19;5117841;28;20642;-67
2022/05/21 08:57:16;;;;;;;7.68;3.90;;;;;;;20.68;45.53;95082.50;5117864;28;20200;-67
2022/05/21 08:59:48;;;;;;;7.47;4.22;;;;;;;20.92;45.15;95083.41;5117951;28;20521;-67
2022/05/21 09:02:18;;;;;;;5.25;3.90;;;;;;;21.03;46.10;95078.47;5117899;28;20567;-67
2022/05/21 09:04:45;;;;;;;5.68;3.90;;;;;;;21.12;43.77;95075.94;5118106;28;20184;-67
2022/05/21 09:07:18;;;;;;;6.28;4.38;;;;;;;21.02;41.21;95068.44;5117629;28;20202;-67
2022/05/21 09:10:02;;;;;;;6.38;3.40;;;;;;;21.23;43.34;95075.00;5118049;28;20217;-67
2022/05/21 09:12:37;;;;;;;5.90;3.40;;;;;;;21.29;41.24;95079.72;5117961;28;20194;-67
2022/05/21 09:15:05;;;;;;;7.65;5.68;;;;;;;21.41;41.19;95072.75;5116905;28;20219;-67
2022/05/21 09:17:41;;;;;;;4.35;3.45;;;;;;;21.43;39.80;95059.09;5116841;28;20542;-67
2022/05/21 09:20:18;;;;;;;7.45;3.90;;;;;;;21.47;40.14;95075.88;5116406;28;20195;-67
2022/05/21 09:22:54;;;;;;;5.00;4.07;;;;;;;21.57;39.13;95075.72;5117391;28;20657;-67
2022/05/21 09:25:25;;;;;;;6.13;2.90;;;;;;;21.75;39.98;95071.81;5117742;28;20260;-67
2022/05/21 09:28:01;;;;;;;5.07;3.05;;;;;;;21.91;37.68;95065.56;5117008;28;20192;-67
2022/05/21 09:30:30;;;;;;;4.03;2.67;;;;;;;21.97;37.52;95058.22;5117332;28;20505;-67
2022/05/21 09:32:58;;;;;;;6.40;3.40;;;;;;;22.05;38.09;95065.34;5116637;28;20198;-67
2022/05/21 09:35:27;;;;;;;4.90;3.50;;;;;;;22.09;38.28;95064.03;5117204;28;20211;-67
2022/05/21 09:37:54;;;;;;;3.75;3.40;;;;;;;22.20;36.68;95063.88;5117458;28;20191;-67
2022/05/21 09:40:40;;;;;;;6.05;3.20;;;;;;;22.39;36.66;95051.09;5116536;28;20187;-67
2022/05/21 09:46:16;;;;;;;4.00;2.58;;;;;;;22.67;35.30;95049.75;5117074;28;20180;-67
2022/05/21 09:48:43;;;;;;;4.07;2.83;;;;;;;22.75;34.85;95050.41;5116294;28;20195;-67
2022/05/21 09:51:22;;;;;;;4.32;2.75;;;;;;;22.74;34.87;95046.00;5116274;28;20204;-67
2022/05/21 09:53:49;;;;;;;3.55;3.25;;;;;;;22.73;36.94;95048.03;5117110;28;20222;-67
2022/05/21 09:56:21;;;;;;;4.05;2.40;;;;;;;22.79;36.28;95045.50;5116138;28;20218;-67
2022/05/21 09:58:50;;;;;;;3.40;2.65;;;;;;;22.84;36.34;95036.56;5117007;28;20184;-67
2022/05/21 10:01:19;;;;;;;4.45;2.10;;;;;;;23.09;35.98;95046.50;5115752;28;20187;-67
2022/05/21 10:03:47;;;;;;;2.83;2.45;;;;;;;23.14;36.72;95040.38;5117056;28;20176;-67
2022/05/21 10:06:26;;;;;;;3.72;2.53;;;;;;;23.11;37.02;95032.81;5116958;28;20195;-67
2022/05/21 10:11:51;;;;;;;4.07;2.58;;;;;;;23.09;36.68;95027.59;5116529;28;20515;-67
2022/05/21 10:14:22;;;;;;;2.42;2.20;;;;;;;23.16;36.57;95026.66;5116438;28;20206;-67
2022/05/21 10:16:53;;;;;;;2.42;2.22;;;;;;;23.27;37.31;95008.31;5115712;28;20207;-67
2022/05/21 10:19:25;;;;;;;5.80;3.88;;;;;;;23.40;38.17;95013.25;5116625;28;20200;-67
2022/05/21 10:22:00;;;;;;;5.20;2.78;;;;;;;23.44;36.62;95006.31;5116019;28;20207;-67
2022/05/21 10:24:38;;;;;;;3.92;2.80;;;;;;;23.46;35.56;94997.44;5116295;28;20195;-67
2022/05/21 10:27:13;;;;;;;3.50;2.80;;;;;;;23.52;37.65;94995.66;5115384;28;20604;-67
2022/05/21 10:30:06;;;;;;;4.15;2.67;;;;;;;23.65;35.91;95001.41;5115853;28;20208;-67
2022/05/21 10:32:54;;;;;;;4.95;2.45;;;;;;;23.88;35.26;95000.44;5102300;28;20276;-67
2022/05/21 10:35:33;;;;;;;3.90;2.53;;;;;;;23.87;35.62;94996.84;5115540;28;20239;-67
2022/05/21 10:38:07;;;;;;;2.97;2.78;;;;;;;24.02;36.53;94989.59;5116339;28;20214;-67
2022/05/21 10:40:38;;;;;;;4.05;2.70;;;;;;;24.10;36.32;94986.59;5116280;28;20202;-67
2022/05/21 10:43:25;;;;;;;3.72;2.83;;;;;;;24.24;34.91;94992.66;5114798;28;20234;-67
2022/05/21 10:46:18;;;;;;;2.47;2.28;;;;;;;24.27;33.86;94983.31;5115250;28;20525;-67
2022/05/21 10:48:53;;;;;;;3.45;2.60;;;;;;;24.30;32.27;94984.44;5114629;28;20204;-67
2022/05/21 10:51:24;;;;;;;2.90;2.47;;;;;;;24.26;32.24;94973.28;5115743;28;20191;-67
2022/05/21 10:53:58;;;;;;;2.95;2.35;;;;;;;24.29;33.75;94963.13;5115199;28;20191;-67
2022/05/21 10:56:41;;;;;;;2.33;1.90;;;;;;;24.50;31.66;94956.91;5114949;28;20204;-67
2022/05/21 10:59:25;;;;;;;2.40;2.20;;;;;;;24.79;31.99;94956.09;5115720;28;20214;-67
2022/05/21 11:01:59;;;;;;;3.55;2.38;;;;;;;24.84;31.80;94946.31;5114982;28;20192;-67
2022/05/21 11:04:36;;;;;;;2.30;2.10;;;;;;;24.85;33.59;94951.47;5115074;28;20203;-67
2022/05/21 11:07:28;;;;;;;3.33;2.35;;;;;;;25.25;34.19;94933.38;5114611;28;20212;-67
2022/05/21 11:10:02;;;;;;;2.67;2.30;;;;;;;25.39;32.94;94925.22;5105645;28;20206;-67
2022/05/21 11:12:32;;;;;;;3.20;2.55;;;;;;;25.26;31.98;94918.00;5115493;28;20183;-67
2022/05/21 11:15:04;;;;;;;4.72;2.30;;;;;;;25.43;30.94;94911.00;5115675;28;20245;-67
2022/05/21 11:17:38;;;;;;;4.65;2.28;;;;;;;25.37;31.60;94910.75;5115157;28;20188;-67
2022/05/21 11:20:14;;;;;;;2.65;2.20;;;;;;;25.36;31.25;94909.19;5114806;28;20211;-67
2022/05/21 11:22:50;;;;;;;2.33;1.90;;;;;;;25.50;28.74;94902.28;5114422;28;20202;-67
2022/05/21 11:25:20;;;;;;;1.73;1.63;;;;;;;25.59;29.23;94895.94;5114773;28;20627;-67
2022/05/21 11:27:50;;;;;;;2.10;1.90;;;;;;;25.71;28.80;94892.31;5114361;28;20650;-68
2022/05/21 11:30:20;;;;;;;3.58;2.30;;;;;;;25.70;29.01;94902.78;5114505;28;20248;-67
2022/05/21 11:38:27;;;;;;;2.67;2.38;;;;;;;25.72;29.27;94882.59;5114660;28;20192;-68
2022/05/21 11:43:56;;;;;;;2.72;2.10;;;;;;;25.68;30.07;94888.34;5118527;28;20199;-67
2022/05/21 11:46:35;;;;;;;4.65;2.90;;;;;;;25.73;31.82;94889.03;5119631;28;20191;-67
2022/05/21 11:49:34;;;;;;;3.28;2.75;;;;;;;25.75;32.63;94886.53;5118654;28;20199;-71
2022/05/21 11:52:39;;;;;;;2.80;2.60;;;;;;;25.74;31.61;94876.47;5118710;28;20207;-68
2022/05/21 11:55:16;;;;;;;3.00;2.55;;;;;;;25.87;32.54;94877.25;5118768;28;20223;-67
2022/05/21 11:57:45;;;;;;;3.03;2.35;;;;;;;25.89;32.58;94864.25;5119173;28;20184;-66
2022/05/21 12:00:45;;;;;;;2.40;2.20;;;;;;;26.10;31.18;94868.31;5118977;28;20627;-66
2022/05/21 12:03:15;;;;;;;4.03;2.33;;;;;;;26.16;30.99;94863.69;5119018;28;20199;-66
2022/05/21 12:06:15;;;;;;;2.53;2.33;;;;;;;26.08;31.40;94856.72;5118378;28;20192;-65
2022/05/21 12:08:48;;;;;;;3.53;2.67;;;;;;;26.07;31.19;94863.63;5118241;28;20524;-66
2022/05/21 12:11:44;;;;;;;2.47;2.25;;;;;;;26.12;30.64;94859.41;5118249;28;20198;-66
2022/05/21 12:14:21;;;;;;;2.63;2.30;;;;;;;26.17;30.91;94855.97;5118660;28;20184;-66
2022/05/21 12:16:52;;;;;;;3.90;2.50;;;;;;;26.12;31.21;94848.09;5119005;28;20186;-66